createdAt,value
2019-05-07T00:00:57.609Z,4.40
2019-05-07T00:01:57.602Z,4.20
2019-05-07T00:02:57.597Z,4.50
2019-05-07T00:03:57.590Z,4.00
2019-05-07T00:04:57.584Z,4.10
2019-05-07T00:05:57.577Z,4.10
2019-05-07T00:06:57.573Z,4.60
2019-05-07T00:07:57.567Z,3.90
2019-05-07T00:08:57.562Z,4.80
2019-05-07T00:09:57.553Z,3.50
2019-05-07T00:10:57.550Z,4.00
2019-05-07T00:11:57.542Z,4.00
2019-05-07T00:12:57.536Z,4.10
2019-05-07T00:13:57.529Z,4.00
2019-05-07T00:15:01.459Z,4.00
2019-05-07T00:15:57.518Z,3.40
2019-05-07T00:16:57.512Z,4.00
2019-05-07T00:17:57.506Z,4.10
2019-05-07T00:18:57.501Z,4.20
2019-05-07T00:19:57.494Z,4.20
2019-05-07T00:20:57.490Z,4.60
2019-05-07T00:21:57.480Z,3.90
2019-05-07T00:22:57.480Z,4.20
2019-05-07T00:23:57.471Z,3.30
2019-05-07T00:24:57.713Z,4.20
2019-05-07T00:25:57.456Z,4.10
2019-05-07T00:26:57.451Z,3.70
2019-05-07T00:27:57.445Z,4.20
2019-05-07T00:28:57.439Z,3.60
2019-05-07T00:29:57.431Z,4.10
2019-05-07T00:30:57.426Z,4.00
2019-05-07T00:31:57.420Z,3.00
2019-05-07T00:32:57.414Z,4.40
2019-05-07T00:33:57.407Z,3.60
2019-05-07T00:34:57.403Z,3.60
2019-05-07T00:35:57.396Z,5.00
2019-05-07T00:36:57.388Z,4.30
2019-05-07T00:37:57.385Z,4.70
2019-05-07T00:38:57.377Z,4.80
2019-05-07T00:39:57.371Z,4.90
2019-05-07T00:40:57.364Z,4.10
2019-05-07T00:41:57.361Z,4.90
2019-05-07T00:42:57.353Z,4.60
2019-05-07T00:43:57.348Z,5.50
2019-05-07T00:44:57.340Z,4.70
2019-05-07T00:45:57.358Z,5.10
2019-05-07T00:46:57.331Z,4.80
2019-05-07T00:47:57.323Z,4.90
2019-05-07T00:48:57.317Z,4.50
2019-05-07T00:49:57.310Z,5.10
2019-05-07T00:50:57.304Z,5.30
2019-05-07T00:51:57.299Z,4.60
2019-05-07T00:52:57.291Z,5.80
2019-05-07T00:53:57.286Z,5.00
2019-05-07T00:54:57.278Z,5.20
2019-05-07T00:55:57.273Z,5.50
2019-05-07T00:56:57.266Z,5.00
2019-05-07T00:57:57.260Z,4.50
2019-05-07T00:58:57.254Z,5.30
2019-05-07T00:59:57.250Z,5.10
2019-05-07T01:00:57.242Z,5.20
2019-05-07T01:01:57.235Z,5.20
2019-05-07T01:02:57.229Z,5.10
2019-05-07T01:03:57.227Z,4.90
2019-05-07T01:04:57.218Z,5.80
2019-05-07T01:05:57.212Z,5.40
2019-05-07T01:06:57.205Z,5.30
2019-05-07T01:07:57.199Z,5.70
2019-05-07T01:08:57.196Z,5.20
2019-05-07T01:09:57.186Z,5.10
2019-05-07T01:10:57.181Z,5.50
2019-05-07T01:11:57.175Z,5.60
2019-05-07T01:12:59.262Z,5.40
2019-05-07T01:13:57.162Z,5.30
2019-05-07T01:14:57.156Z,5.40
2019-05-07T01:15:57.151Z,5.10
2019-05-07T01:16:57.144Z,5.10
2019-05-07T01:17:57.138Z,5.90
2019-05-07T01:18:57.131Z,5.60
2019-05-07T01:19:57.126Z,5.30
2019-05-07T01:20:57.119Z,5.10
2019-05-07T01:21:57.118Z,5.10
2019-05-07T01:22:57.113Z,4.90
2019-05-07T01:23:57.101Z,5.00
2019-05-07T01:24:57.095Z,5.10
2019-05-07T01:25:57.088Z,5.20
2019-05-07T01:26:57.083Z,4.90
2019-05-07T01:27:57.077Z,5.00
2019-05-07T01:28:57.070Z,5.10
2019-05-07T01:29:57.068Z,5.00
2019-05-07T01:30:57.058Z,5.20
2019-05-07T01:31:57.052Z,5.00
2019-05-07T01:32:57.046Z,4.90
2019-05-07T01:33:57.041Z,5.30
2019-05-07T01:34:57.034Z,5.00
2019-05-07T01:35:57.029Z,4.20
2019-05-07T01:36:57.021Z,4.90
2019-05-07T01:37:57.016Z,3.00
2019-05-07T01:38:57.009Z,4.10
2019-05-07T01:39:57.004Z,3.80
2019-05-07T01:40:57.000Z,4.40
2019-05-07T01:41:56.992Z,4.30
2019-05-07T01:42:56.986Z,4.20
2019-05-07T01:43:56.979Z,4.20
2019-05-07T01:44:56.974Z,4.00
2019-05-07T01:45:56.966Z,3.90
2019-05-07T01:46:56.962Z,4.10
2019-05-07T01:47:56.955Z,3.70
2019-05-07T01:48:57.587Z,4.30
2019-05-07T01:49:56.970Z,4.00
2019-05-07T01:50:56.937Z,4.00
2019-05-07T01:51:56.930Z,4.00
2019-05-07T01:52:56.923Z,4.10
2019-05-07T01:53:56.918Z,4.30
2019-05-07T01:54:56.913Z,4.30
2019-05-07T01:55:56.908Z,4.50
2019-05-07T01:56:56.898Z,3.60
2019-05-07T01:57:56.894Z,3.70
2019-05-07T01:58:56.887Z,4.70
2019-05-07T01:59:56.881Z,3.90
2019-05-07T02:00:56.875Z,3.80
2019-05-07T02:01:56.870Z,4.30
2019-05-07T02:02:56.865Z,3.70
2019-05-07T02:03:56.855Z,3.30
2019-05-07T02:04:56.848Z,3.60
2019-05-07T02:05:56.844Z,3.70
2019-05-07T02:06:56.841Z,2.90
2019-05-07T02:07:56.831Z,3.90
2019-05-07T02:08:56.824Z,3.20
2019-05-07T02:09:56.818Z,3.30
2019-05-07T02:10:56.812Z,3.60
2019-05-07T02:11:56.807Z,3.80
2019-05-07T02:12:56.798Z,3.60
2019-05-07T02:13:56.791Z,3.80
2019-05-07T02:14:56.786Z,4.00
2019-05-07T02:16:00.825Z,3.80
2019-05-07T02:16:56.772Z,4.00
2019-05-07T02:17:56.767Z,3.50
2019-05-07T02:18:56.759Z,3.70
2019-05-07T02:19:56.754Z,3.50
2019-05-07T02:20:56.747Z,3.10
2019-05-07T02:21:56.742Z,3.10
2019-05-07T02:22:56.735Z,3.00
2019-05-07T02:23:56.729Z,3.30
2019-05-07T02:24:56.721Z,3.40
2019-05-07T02:25:56.717Z,3.40
2019-05-07T02:26:56.708Z,3.40
2019-05-07T02:27:56.707Z,3.70
2019-05-07T02:28:56.696Z,3.60
2019-05-07T02:29:56.690Z,4.10
2019-05-07T02:30:56.689Z,3.20
2019-05-07T02:31:56.679Z,3.70
2019-05-07T02:32:56.671Z,4.10
2019-05-07T02:33:56.666Z,3.70
2019-05-07T02:34:56.659Z,3.70
2019-05-07T02:35:56.660Z,3.80
2019-05-07T02:36:56.644Z,3.30
2019-05-07T02:37:57.137Z,3.20
2019-05-07T02:38:56.631Z,3.70
2019-05-07T02:39:56.630Z,3.50
2019-05-07T02:40:56.617Z,4.00
2019-05-07T02:41:56.658Z,3.90
2019-05-07T02:42:56.606Z,3.20
2019-05-07T02:43:59.947Z,3.40
2019-05-07T02:44:56.590Z,3.60
2019-05-07T02:45:56.585Z,3.70
2019-05-07T02:46:56.578Z,3.80
2019-05-07T02:47:56.579Z,3.60
2019-05-07T02:48:56.565Z,4.20
2019-05-07T02:49:56.558Z,3.80
2019-05-07T02:50:56.552Z,3.30
2019-05-07T02:51:56.546Z,3.50
2019-05-07T02:52:56.539Z,3.60
2019-05-07T02:53:56.542Z,3.40
2019-05-07T02:54:56.532Z,4.30
2019-05-07T02:55:56.528Z,3.30
2019-05-07T02:56:56.515Z,3.60
2019-05-07T02:57:56.505Z,3.90
2019-05-07T02:58:56.498Z,4.30
2019-05-07T02:59:56.492Z,3.80
2019-05-07T03:00:56.496Z,4.30
2019-05-07T03:01:56.479Z,3.70
2019-05-07T03:02:56.478Z,3.70
2019-05-07T03:03:56.471Z,3.50
2019-05-07T03:04:56.458Z,4.10
2019-05-07T03:05:56.453Z,3.80
2019-05-07T03:06:56.447Z,3.40
2019-05-07T03:07:56.444Z,3.90
2019-05-07T03:08:56.440Z,3.80
2019-05-07T03:09:56.427Z,4.20
2019-05-07T03:10:56.426Z,4.20
2019-05-07T03:11:56.412Z,3.50
2019-05-07T03:12:56.405Z,4.00
2019-05-07T03:13:56.400Z,4.00
2019-05-07T03:14:56.395Z,4.10
2019-05-07T03:15:56.386Z,4.20
2019-05-07T03:16:56.380Z,4.00
2019-05-07T03:17:56.373Z,4.30
2019-05-07T03:18:56.370Z,3.90
2019-05-07T03:19:56.359Z,4.30
2019-05-07T03:20:56.353Z,4.10
2019-05-07T03:21:56.352Z,4.30
2019-05-07T03:22:56.341Z,4.30
2019-05-07T03:23:56.336Z,3.70
2019-05-07T03:24:56.327Z,4.10
2019-05-07T03:25:56.323Z,4.30
2019-05-07T03:26:56.316Z,4.80
2019-05-07T03:27:56.309Z,4.00
2019-05-07T03:28:56.302Z,4.30
2019-05-07T03:29:56.294Z,4.10
2019-05-07T03:30:57.148Z,4.40
2019-05-07T03:31:56.973Z,4.80
2019-05-07T03:32:56.637Z,4.50
2019-05-07T03:33:56.566Z,4.80
2019-05-07T03:34:57.853Z,4.50
2019-05-07T03:35:57.073Z,4.70
2019-05-07T03:36:57.169Z,4.60
2019-05-07T03:37:56.245Z,4.50
2019-05-07T03:38:56.236Z,4.50
2019-05-07T03:39:56.230Z,4.30
2019-05-07T03:40:56.223Z,4.70
2019-05-07T03:41:56.217Z,4.40
2019-05-07T03:42:56.211Z,4.40
2019-05-07T03:43:56.204Z,5.30
2019-05-07T03:44:56.199Z,5.40
2019-05-07T03:45:56.191Z,5.60
2019-05-07T03:47:02.367Z,5.70
2019-05-07T03:47:56.181Z,5.00
2019-05-07T03:48:56.171Z,6.10
2019-05-07T03:49:56.167Z,6.20
2019-05-07T03:50:56.160Z,6.10
2019-05-07T03:51:56.158Z,5.90
2019-05-07T03:52:56.147Z,4.80
2019-05-07T03:53:56.139Z,5.90
2019-05-07T03:54:56.136Z,5.40
2019-05-07T03:55:56.129Z,5.60
2019-05-07T03:56:56.119Z,5.00
2019-05-07T03:57:56.113Z,5.70
2019-05-07T03:58:56.109Z,5.80
2019-05-07T03:59:56.106Z,5.90
2019-05-07T04:00:56.106Z,6.00
2019-05-07T04:01:56.088Z,5.50
2019-05-07T04:02:56.082Z,6.10
2019-05-07T04:03:56.075Z,6.10
2019-05-07T04:04:56.068Z,5.50
2019-05-07T04:05:56.061Z,5.40
2019-05-07T04:06:56.056Z,5.30
2019-05-07T04:07:56.049Z,5.20
2019-05-07T04:08:56.044Z,6.20
2019-05-07T04:09:56.035Z,6.00
2019-05-07T04:10:56.030Z,6.30
2019-05-07T04:11:56.022Z,6.30
2019-05-07T04:12:56.015Z,6.10
2019-05-07T04:13:56.008Z,5.40
2019-05-07T04:14:56.005Z,5.70
2019-05-07T04:15:55.997Z,5.90
2019-05-07T04:17:13.284Z,5.90
2019-05-07T04:17:55.991Z,6.20
2019-05-07T04:18:55.989Z,5.70
2019-05-07T04:19:55.976Z,6.60
2019-05-07T04:20:55.964Z,5.80
2019-05-07T04:21:55.959Z,5.90
2019-05-07T04:22:55.951Z,5.80
2019-05-07T04:23:55.945Z,6.20
2019-05-07T04:24:55.938Z,6.70
2019-05-07T04:25:55.931Z,5.90
2019-05-07T04:26:55.927Z,5.60
2019-05-07T04:27:55.919Z,6.20
2019-05-07T04:28:55.915Z,5.70
2019-05-07T04:29:55.907Z,5.30
2019-05-07T04:30:55.901Z,5.40
2019-05-07T04:31:55.893Z,4.70
2019-05-07T04:32:55.890Z,5.10
2019-05-07T04:33:55.882Z,5.30
2019-05-07T04:34:55.874Z,5.00
2019-05-07T04:35:55.868Z,5.00
2019-05-07T04:36:55.860Z,4.80
2019-05-07T04:37:55.856Z,5.10
2019-05-07T04:38:55.849Z,4.90
2019-05-07T04:39:55.843Z,5.30
2019-05-07T04:40:55.836Z,5.20
2019-05-07T04:41:55.832Z,5.20
2019-05-07T04:42:55.826Z,5.40
2019-05-07T04:43:55.817Z,5.10
2019-05-07T04:44:55.809Z,4.60
2019-05-07T04:45:55.804Z,5.10
2019-05-07T04:46:55.809Z,5.00
2019-05-07T04:47:55.790Z,5.10
2019-05-07T04:48:55.786Z,5.00
2019-05-07T04:49:55.780Z,4.60
2019-05-07T04:50:55.782Z,4.20
2019-05-07T04:51:55.767Z,4.90
2019-05-07T04:52:55.759Z,4.70
2019-05-07T04:53:55.756Z,5.20
2019-05-07T04:54:55.749Z,4.40
2019-05-07T04:55:55.740Z,4.40
2019-05-07T04:56:55.734Z,4.70
2019-05-07T04:57:55.729Z,4.50
2019-05-07T04:58:55.724Z,5.20
2019-05-07T04:59:55.717Z,4.50
2019-05-07T05:00:55.712Z,4.50
2019-05-07T05:01:55.704Z,4.40
2019-05-07T05:02:55.711Z,4.30
2019-05-07T05:03:55.691Z,4.50
2019-05-07T05:04:55.685Z,4.40
2019-05-07T05:05:55.739Z,4.60
2019-05-07T05:06:55.675Z,4.40
2019-05-07T05:07:55.667Z,4.80
2019-05-07T05:08:56.362Z,4.20
2019-05-07T05:09:55.685Z,4.40
2019-05-07T05:10:55.687Z,4.80
2019-05-07T05:11:55.648Z,5.10
2019-05-07T05:12:55.637Z,4.40
2019-05-07T05:13:55.647Z,4.30
2019-05-07T05:14:55.625Z,4.30
2019-05-07T05:15:55.618Z,4.30
2019-05-07T05:16:55.613Z,4.30
2019-05-07T05:17:55.607Z,4.70
2019-05-07T05:18:55.602Z,4.00
2019-05-07T05:19:55.597Z,4.80
2019-05-07T05:20:55.589Z,4.60
2019-05-07T05:21:55.583Z,4.80
2019-05-07T05:22:55.577Z,5.10
2019-05-07T05:23:55.571Z,5.00
2019-05-07T05:24:55.565Z,4.20
2019-05-07T05:25:55.560Z,3.60
2019-05-07T05:26:55.555Z,3.90
2019-05-07T05:27:55.552Z,3.90
2019-05-07T05:28:55.543Z,4.10
2019-05-07T05:29:55.537Z,4.30
2019-05-07T05:30:55.531Z,4.10
2019-05-07T05:31:55.527Z,4.50
2019-05-07T05:32:55.518Z,4.50
2019-05-07T05:33:55.515Z,4.60
2019-05-07T05:34:55.508Z,4.60
2019-05-07T05:35:55.502Z,3.80
2019-05-07T05:36:55.496Z,4.00
2019-05-07T05:37:55.491Z,4.20
2019-05-07T05:38:55.487Z,5.00
2019-05-07T05:40:05.180Z,4.70
2019-05-07T05:40:55.473Z,4.60
2019-05-07T05:41:55.467Z,4.10
2019-05-07T05:42:55.462Z,3.90
2019-05-07T05:43:55.457Z,4.00
2019-05-07T05:44:55.450Z,4.60
2019-05-07T05:45:55.444Z,4.30
2019-05-07T05:46:55.440Z,4.30
2019-05-07T05:48:04.602Z,4.60
2019-05-07T05:48:55.428Z,3.70
2019-05-07T05:49:55.424Z,4.60
2019-05-07T05:50:55.421Z,4.50
2019-05-07T05:51:55.412Z,4.20
2019-05-07T05:52:55.406Z,4.50
2019-05-07T05:53:55.401Z,4.90
2019-05-07T05:54:55.396Z,4.30
2019-05-07T05:55:55.391Z,4.70
2019-05-07T05:56:55.383Z,4.50
2019-05-07T05:57:55.379Z,4.80
2019-05-07T05:58:55.383Z,4.30
2019-05-07T05:59:55.638Z,4.70
2019-05-07T06:00:55.363Z,4.20
2019-05-07T06:01:55.356Z,4.50
2019-05-07T06:02:55.351Z,4.50
2019-05-07T06:03:55.345Z,3.90
2019-05-07T06:04:55.340Z,4.50
2019-05-07T06:05:55.335Z,4.30
2019-05-07T06:07:07.888Z,4.80
2019-05-07T06:07:55.325Z,3.80
2019-05-07T06:08:55.319Z,3.90
2019-05-07T06:09:55.314Z,4.50
2019-05-07T06:10:55.307Z,4.10
2019-05-07T06:11:55.302Z,4.50
2019-05-07T06:12:55.296Z,4.40
2019-05-07T06:13:55.292Z,4.50
2019-05-07T06:14:55.285Z,4.20
2019-05-07T06:15:55.281Z,4.20
2019-05-07T06:16:55.272Z,4.40
2019-05-07T06:17:55.267Z,4.20
2019-05-07T06:18:55.265Z,5.00
2019-05-07T06:19:55.258Z,4.50
2019-05-07T06:20:55.252Z,4.70
2019-05-07T06:21:55.247Z,4.20
2019-05-07T06:22:55.241Z,4.40
2019-05-07T06:23:55.235Z,4.80
2019-05-07T06:24:56.533Z,4.40
2019-05-07T06:25:55.225Z,4.40
2019-05-07T06:26:55.222Z,4.40
2019-05-07T06:27:55.214Z,4.40
2019-05-07T06:28:55.209Z,4.40
2019-05-07T06:29:55.203Z,4.80
2019-05-07T06:30:55.198Z,4.30
2019-05-07T06:31:55.193Z,4.30
2019-05-07T06:32:55.189Z,5.20
2019-05-07T06:33:55.182Z,4.80
2019-05-07T06:34:55.204Z,4.90
2019-05-07T06:35:55.170Z,4.80
2019-05-07T06:36:55.166Z,5.10
2019-05-07T06:37:55.160Z,4.10
2019-05-07T06:38:55.154Z,5.10
2019-05-07T06:39:55.149Z,5.10
2019-05-07T06:40:55.144Z,4.90
2019-05-07T06:41:55.138Z,4.30
2019-05-07T06:42:55.132Z,5.00
2019-05-07T06:43:55.129Z,4.90
2019-05-07T06:44:55.121Z,4.40
2019-05-07T06:45:55.119Z,5.20
2019-05-07T06:46:55.112Z,4.50
2019-05-07T06:47:55.110Z,4.60
2019-05-07T06:48:55.101Z,4.90
2019-05-07T06:49:55.098Z,5.40
2019-05-07T06:50:55.092Z,4.70
2019-05-07T06:51:55.088Z,4.20
2019-05-07T06:52:55.081Z,4.90
2019-05-07T06:53:55.075Z,4.40
2019-05-07T06:54:55.069Z,4.60
2019-05-07T06:55:55.064Z,4.80
2019-05-07T06:56:55.059Z,4.40
2019-05-07T06:57:55.054Z,4.60
2019-05-07T06:58:55.052Z,4.70
2019-05-07T06:59:55.043Z,4.30
2019-05-07T07:00:55.038Z,4.00
2019-05-07T07:01:55.033Z,5.10
2019-05-07T07:02:55.029Z,4.10
2019-05-07T07:03:55.024Z,4.90
2019-05-07T07:04:55.018Z,4.60
2019-05-07T07:05:55.015Z,4.90
2019-05-07T07:06:55.009Z,5.10
2019-05-07T07:07:55.008Z,4.80
2019-05-07T07:08:55.015Z,4.90
2019-05-07T07:09:54.994Z,4.70
2019-05-07T07:10:54.988Z,4.30
2019-05-07T07:11:54.984Z,3.80
2019-05-07T07:12:54.979Z,4.00
2019-05-07T07:13:54.974Z,4.10
2019-05-07T07:14:56.571Z,4.10
2019-05-07T07:15:54.964Z,3.80
2019-05-07T07:16:54.959Z,4.40
2019-05-07T07:17:54.955Z,3.70
2019-05-07T07:18:55.789Z,3.70
2019-05-07T07:19:54.947Z,3.70
2019-05-07T07:20:54.940Z,3.30
2019-05-07T07:21:54.937Z,3.20
2019-05-07T07:22:54.933Z,3.50
2019-05-07T07:23:54.929Z,3.30
2019-05-07T07:24:54.921Z,3.10
2019-05-07T07:25:54.919Z,3.60
2019-05-07T07:26:54.916Z,4.30
2019-05-07T07:27:54.909Z,3.00
2019-05-07T07:28:54.903Z,3.40
2019-05-07T07:29:54.898Z,3.50
2019-05-07T07:30:54.898Z,3.20
2019-05-07T07:31:54.893Z,3.60
2019-05-07T07:32:54.886Z,3.80
2019-05-07T07:33:54.882Z,3.80
2019-05-07T07:34:54.877Z,3.80
2019-05-07T07:35:54.879Z,3.80
2019-05-07T07:37:04.998Z,3.70
2019-05-07T07:37:54.865Z,3.90
2019-05-07T07:38:54.858Z,4.10
2019-05-07T07:39:54.857Z,4.00
2019-05-07T07:40:54.851Z,3.50
2019-05-07T07:41:54.846Z,3.90
2019-05-07T07:42:54.843Z,3.70
2019-05-07T07:43:54.839Z,4.20
2019-05-07T07:44:54.834Z,3.50
2019-05-07T07:45:54.829Z,3.80
2019-05-07T07:46:54.828Z,3.80
2019-05-07T07:47:54.822Z,3.90
2019-05-07T07:49:06.629Z,4.10
2019-05-07T07:49:54.812Z,3.30
2019-05-07T07:50:54.808Z,3.50
2019-05-07T07:51:54.804Z,3.30
2019-05-07T07:52:54.800Z,3.80
2019-05-07T07:53:54.795Z,3.30
2019-05-07T07:54:54.794Z,3.80
2019-05-07T07:55:54.787Z,3.70
2019-05-07T07:56:56.599Z,3.60
2019-05-07T07:57:54.781Z,3.60
2019-05-07T07:58:54.775Z,3.50
2019-05-07T07:59:54.774Z,3.70
2019-05-07T08:00:54.771Z,3.40
2019-05-07T08:01:54.765Z,3.40
2019-05-07T08:02:54.764Z,3.30
2019-05-07T08:03:54.759Z,3.20
2019-05-07T08:04:54.758Z,2.70
2019-05-07T08:05:54.752Z,3.00
2019-05-07T08:06:54.753Z,3.70
2019-05-07T08:07:54.749Z,3.40
2019-05-07T08:08:54.745Z,3.10
2019-05-07T08:09:54.740Z,3.00
2019-05-07T08:10:54.736Z,3.10
2019-05-07T08:11:54.734Z,2.80
2019-05-07T08:12:54.733Z,2.90
2019-05-07T08:13:54.730Z,2.80
2019-05-07T08:14:54.727Z,3.10
2019-05-07T08:15:54.726Z,2.40
2019-05-07T08:16:54.724Z,2.70
2019-05-07T08:17:54.727Z,2.20
2019-05-07T08:18:54.720Z,2.00
2019-05-07T08:19:54.719Z,2.60
2019-05-07T08:20:54.721Z,2.50
2019-05-07T08:21:54.718Z,2.10
2019-05-07T08:22:54.717Z,2.80
2019-05-07T08:23:54.715Z,2.30
2019-05-07T08:24:54.713Z,1.80
2019-05-07T08:25:54.715Z,1.80
2019-05-07T08:26:54.712Z,2.10
2019-05-07T08:27:57.779Z,2.50
2019-05-07T08:28:54.712Z,1.90
2019-05-07T08:29:54.710Z,1.80
2019-05-07T08:30:54.717Z,1.50
2019-05-07T08:31:54.711Z,2.00
2019-05-07T08:32:54.711Z,2.10
2019-05-07T08:33:54.711Z,2.00
2019-05-07T08:34:54.711Z,1.60
2019-05-07T08:35:54.710Z,2.00
2019-05-07T08:36:54.710Z,2.40
2019-05-07T08:37:54.711Z,1.80
2019-05-07T08:38:55.726Z,1.60
2019-05-07T08:39:54.714Z,2.10
2019-05-07T08:40:54.714Z,2.20
2019-05-07T08:41:54.715Z,1.70
2019-05-07T08:42:54.715Z,2.20
2019-05-07T08:44:08.108Z,2.00
2019-05-07T08:44:54.720Z,2.30
2019-05-07T08:45:54.720Z,1.80
2019-05-07T08:46:54.722Z,2.70
2019-05-07T08:47:54.726Z,2.00
2019-05-07T08:48:54.726Z,1.50
2019-05-07T08:49:54.730Z,1.70
2019-05-07T08:50:54.734Z,1.70
2019-05-07T08:51:54.738Z,1.80
2019-05-07T08:52:54.742Z,1.50
2019-05-07T08:53:54.746Z,1.60
2019-05-07T08:54:54.750Z,1.50
2019-05-07T08:55:54.756Z,1.80
2019-05-07T08:56:54.760Z,1.70
2019-05-07T08:57:54.765Z,1.30
2019-05-07T08:58:54.769Z,1.30
2019-05-07T09:00:00.228Z,1.50
2019-05-07T09:00:54.778Z,1.80
2019-05-07T09:01:54.783Z,1.20
2019-05-07T09:02:54.788Z,1.60
2019-05-07T09:03:54.793Z,1.10
2019-05-07T09:04:54.797Z,1.50
2019-05-07T09:05:54.811Z,2.00
2019-05-07T09:06:54.806Z,1.40
2019-05-07T09:07:54.813Z,1.20
2019-05-07T09:08:54.822Z,1.50
2019-05-07T09:09:54.821Z,1.70
2019-05-07T09:10:54.825Z,1.80
2019-05-07T09:11:54.829Z,1.50
2019-05-07T09:12:54.837Z,1.30
2019-05-07T09:13:54.837Z,1.60
2019-05-07T09:14:54.843Z,2.10
2019-05-07T09:15:54.847Z,1.50
2019-05-07T09:16:54.852Z,1.50
2019-05-07T09:17:54.853Z,1.90
2019-05-07T09:18:54.857Z,2.00
2019-05-07T09:19:55.095Z,1.90
2019-05-07T09:20:54.863Z,1.90
2019-05-07T09:21:54.867Z,2.10
2019-05-07T09:22:54.870Z,1.60
2019-05-07T09:23:54.874Z,1.50
2019-05-07T09:24:54.875Z,1.80
2019-05-07T09:25:54.878Z,1.70
2019-05-07T09:26:54.884Z,2.00
2019-05-07T09:27:54.882Z,1.60
2019-05-07T09:28:54.887Z,1.70
2019-05-07T09:29:54.885Z,1.70
2019-05-07T09:30:54.887Z,1.70
2019-05-07T09:31:54.889Z,2.40
2019-05-07T09:32:54.892Z,2.70
2019-05-07T09:33:54.891Z,1.90
2019-05-07T09:34:54.896Z,1.80
2019-05-07T09:35:54.893Z,1.50
2019-05-07T09:36:54.894Z,2.00
2019-05-07T09:37:54.895Z,1.50
2019-05-07T09:38:58.996Z,1.50
2019-05-07T09:39:54.898Z,1.30
2019-05-07T09:40:57.011Z,1.70
2019-05-07T09:41:54.898Z,1.80
2019-05-07T09:42:54.899Z,1.40
2019-05-07T09:43:54.900Z,1.40
2019-05-07T09:44:54.900Z,1.90
2019-05-07T09:45:54.900Z,1.70
2019-05-07T09:46:54.900Z,1.30
2019-05-07T09:47:54.901Z,1.50
2019-05-07T09:48:54.901Z,1.60
2019-05-07T09:50:03.985Z,1.60
2019-05-07T09:50:54.901Z,2.00
2019-05-07T09:51:54.900Z,2.10
2019-05-07T09:52:54.902Z,2.00
2019-05-07T09:53:54.900Z,1.60
2019-05-07T09:54:54.901Z,1.70
2019-05-07T09:55:54.905Z,1.90
2019-05-07T09:56:54.901Z,1.50
2019-05-07T09:57:54.900Z,2.30
2019-05-07T09:58:54.901Z,2.50
2019-05-07T09:59:54.900Z,2.30
2019-05-07T10:00:54.897Z,2.20
2019-05-07T10:01:54.898Z,2.20
2019-05-07T10:02:56.715Z,2.20
2019-05-07T10:03:54.897Z,3.10
2019-05-07T10:04:54.896Z,2.60
2019-05-07T10:05:54.899Z,2.90
2019-05-07T10:06:54.895Z,2.80
2019-05-07T10:07:54.895Z,2.30
2019-05-07T10:08:54.895Z,2.80
2019-05-07T10:09:54.893Z,2.80
2019-05-07T10:10:54.892Z,3.00
2019-05-07T10:11:54.894Z,2.50
2019-05-07T10:12:54.893Z,2.80
2019-05-07T10:13:54.891Z,3.20
2019-05-07T10:14:54.893Z,3.10
2019-05-07T10:15:54.892Z,3.10
2019-05-07T10:16:54.892Z,3.00
2019-05-07T10:17:54.892Z,3.20
2019-05-07T10:18:54.894Z,2.30
2019-05-07T10:19:54.894Z,2.80
2019-05-07T10:20:54.896Z,2.40
2019-05-07T10:21:54.895Z,2.20
2019-05-07T10:22:54.897Z,2.40
2019-05-07T10:23:54.898Z,2.50
2019-05-07T10:24:54.900Z,2.60
2019-05-07T10:25:54.900Z,2.90
2019-05-07T10:26:54.903Z,2.40
2019-05-07T10:27:54.905Z,2.90
2019-05-07T10:28:54.907Z,2.40
2019-05-07T10:29:54.909Z,2.70
2019-05-07T10:30:54.911Z,2.30
2019-05-07T10:31:54.913Z,2.50
2019-05-07T10:32:54.925Z,2.10
2019-05-07T10:33:54.915Z,2.10
2019-05-07T10:34:54.924Z,1.90
2019-05-07T10:35:54.919Z,1.70
2019-05-07T10:36:54.919Z,2.50
2019-05-07T10:37:54.920Z,1.90
2019-05-07T10:38:54.922Z,2.40
2019-05-07T10:39:54.923Z,2.10
2019-05-07T10:40:54.923Z,1.90
2019-05-07T10:41:57.731Z,2.00
2019-05-07T10:42:54.927Z,1.70
2019-05-07T10:43:54.928Z,2.30
2019-05-07T10:44:54.929Z,1.90
2019-05-07T10:45:54.929Z,2.20
2019-05-07T10:46:54.928Z,1.70
2019-05-07T10:47:54.930Z,1.90
2019-05-07T10:48:54.930Z,1.90
2019-05-07T10:49:54.934Z,1.80
2019-05-07T10:50:54.931Z,1.90
2019-05-07T10:51:54.929Z,2.50
2019-05-07T10:52:54.930Z,2.00
2019-05-07T10:53:54.932Z,2.30
2019-05-07T10:54:59.691Z,2.50
2019-05-07T10:55:54.930Z,2.10
2019-05-07T10:56:54.930Z,2.50
2019-05-07T10:57:54.930Z,2.40
2019-05-07T10:58:54.931Z,2.20
2019-05-07T10:59:54.932Z,2.30
2019-05-07T11:00:54.932Z,2.30
2019-05-07T11:01:54.930Z,3.00
2019-05-07T11:02:54.932Z,2.20
2019-05-07T11:03:54.931Z,2.30
2019-05-07T11:04:54.931Z,2.40
2019-05-07T11:05:54.931Z,2.60
2019-05-07T11:06:54.931Z,2.70
2019-05-07T11:07:54.933Z,2.50
2019-05-07T11:08:54.934Z,2.20
2019-05-07T11:09:54.929Z,2.40
2019-05-07T11:10:54.931Z,2.20
2019-05-07T11:11:54.933Z,2.00
2019-05-07T11:12:54.931Z,2.20
2019-05-07T11:13:56.119Z,2.70
2019-05-07T11:14:54.932Z,2.40
2019-05-07T11:15:54.936Z,2.00
2019-05-07T11:16:54.930Z,2.60
2019-05-07T11:17:54.935Z,2.20
2019-05-07T11:18:54.932Z,2.40
2019-05-07T11:19:54.935Z,2.60
2019-05-07T11:20:54.930Z,2.50
2019-05-07T11:21:54.931Z,2.70
2019-05-07T11:22:54.932Z,2.70
2019-05-07T11:23:54.932Z,3.10
2019-05-07T11:24:54.931Z,3.00
2019-05-07T11:25:54.932Z,3.10
2019-05-07T11:26:54.929Z,3.00
2019-05-07T11:27:54.931Z,3.30
2019-05-07T11:28:54.935Z,3.40
2019-05-07T11:29:54.931Z,3.20
2019-05-07T11:30:54.930Z,2.80
2019-05-07T11:31:54.931Z,2.70
2019-05-07T11:32:54.928Z,3.10
2019-05-07T11:33:54.928Z,3.00
2019-05-07T11:34:56.374Z,2.80
2019-05-07T11:35:54.928Z,3.10
2019-05-07T11:36:54.927Z,2.90
2019-05-07T11:37:54.928Z,2.90
2019-05-07T11:38:54.927Z,2.40
2019-05-07T11:39:54.929Z,3.50
2019-05-07T11:40:54.927Z,2.70
2019-05-07T11:41:54.926Z,2.80
2019-05-07T11:42:54.926Z,2.90
2019-05-07T11:43:54.926Z,3.10
2019-05-07T11:44:54.978Z,2.90
2019-05-07T11:45:54.925Z,3.00
2019-05-07T11:46:54.926Z,3.20
2019-05-07T11:47:54.926Z,3.00
2019-05-07T11:48:54.925Z,4.00
2019-05-07T11:49:54.925Z,3.70
2019-05-07T11:51:03.352Z,3.50
2019-05-07T11:51:54.927Z,3.40
2019-05-07T11:52:54.926Z,3.60
2019-05-07T11:53:54.924Z,2.80
2019-05-07T11:54:54.927Z,3.10
2019-05-07T11:55:54.925Z,3.50
2019-05-07T11:56:55.461Z,3.50
2019-05-07T11:57:54.947Z,3.70
2019-05-07T11:58:54.926Z,3.40
2019-05-07T11:59:54.924Z,3.20
2019-05-07T12:00:54.924Z,3.60
2019-05-07T12:01:54.924Z,3.30
2019-05-07T12:02:54.923Z,3.50
2019-05-07T12:03:54.924Z,3.00
2019-05-07T12:04:54.924Z,3.50
2019-05-07T12:05:54.924Z,3.50
2019-05-07T12:06:54.923Z,2.70
2019-05-07T12:07:54.924Z,3.80
2019-05-07T12:08:54.926Z,3.60
2019-05-07T12:09:54.923Z,3.60
2019-05-07T12:10:54.922Z,3.70
2019-05-07T12:11:54.923Z,3.60
2019-05-07T12:12:54.921Z,3.80
2019-05-07T12:13:57.225Z,3.40
2019-05-07T12:14:54.920Z,3.50
2019-05-07T12:15:54.921Z,3.80
2019-05-07T12:16:54.922Z,3.90
2019-05-07T12:17:54.917Z,3.80
2019-05-07T12:18:55.497Z,3.70
2019-05-07T12:19:54.917Z,3.60
2019-05-07T12:20:54.916Z,3.80
2019-05-07T12:21:54.917Z,3.30
2019-05-07T12:22:54.916Z,3.60
2019-05-07T12:23:54.916Z,3.30
2019-05-07T12:24:54.915Z,3.70
2019-05-07T12:25:54.914Z,3.60
2019-05-07T12:26:54.915Z,3.60
2019-05-07T12:27:54.914Z,3.30
2019-05-07T12:28:54.914Z,3.60
2019-05-07T12:29:54.913Z,3.50
2019-05-07T12:30:54.912Z,3.50
2019-05-07T12:31:55.737Z,4.30
2019-05-07T12:32:54.912Z,3.10
2019-05-07T12:33:54.913Z,3.90
2019-05-07T12:34:54.911Z,4.40
2019-05-07T12:35:54.913Z,3.50
2019-05-07T12:36:54.915Z,4.20
2019-05-07T12:37:54.910Z,4.40
2019-05-07T12:38:54.911Z,4.10
2019-05-07T12:39:54.910Z,3.80
2019-05-07T12:40:54.911Z,3.90
2019-05-07T12:41:54.910Z,4.00
2019-05-07T12:42:54.911Z,4.40
2019-05-07T12:43:54.910Z,3.70
2019-05-07T12:44:54.915Z,3.90
2019-05-07T12:45:54.910Z,3.80
2019-05-07T12:46:54.911Z,3.70
2019-05-07T12:47:54.909Z,3.80
2019-05-07T12:48:54.909Z,3.90
2019-05-07T12:49:54.909Z,3.90
2019-05-07T12:50:54.910Z,3.40
2019-05-07T12:51:54.911Z,4.20
2019-05-07T12:52:54.908Z,3.50
2019-05-07T12:53:54.913Z,3.80
2019-05-07T12:54:54.911Z,3.90
2019-05-07T12:55:54.911Z,3.90
2019-05-07T12:56:54.909Z,4.20
2019-05-07T12:57:54.910Z,3.80
2019-05-07T12:58:54.909Z,3.90
2019-05-07T12:59:54.910Z,3.50
2019-05-07T13:00:54.910Z,4.10
2019-05-07T13:01:54.909Z,4.00
2019-05-07T13:02:54.909Z,3.90
2019-05-07T13:03:54.912Z,3.30
2019-05-07T13:04:57.763Z,3.40
2019-05-07T13:05:54.908Z,4.30
2019-05-07T13:06:54.907Z,3.70
2019-05-07T13:07:54.914Z,3.10
2019-05-07T13:08:54.907Z,3.30
2019-05-07T13:09:54.906Z,3.50
2019-05-07T13:10:54.905Z,3.30
2019-05-07T13:11:54.904Z,3.80
2019-05-07T13:12:54.904Z,3.60
2019-05-07T13:13:54.905Z,3.20
2019-05-07T13:14:54.903Z,3.90
2019-05-07T13:15:54.902Z,4.70
2019-05-07T13:16:54.901Z,3.90
2019-05-07T13:17:54.904Z,4.30
2019-05-07T13:18:54.899Z,4.10